sensor_id;sensor_type;location;lat;lon;timestamp;P1;durP1;ratioP1;P2;durP2;ratioP2
63012;SDS011;62113;45.624;11.700;2024-03-29T00:01:47;14.93;;;12.15;;
63012;SDS011;62113;45.624;11.700;2024-03-29T00:04:13;14.48;;;11.52;;
63012;SDS011;62113;45.624;11.700;2024-03-29T00:06:38;17.30;;;12.70;;
63012;SDS011;62113;45.624;11.700;2024-03-29T00:09:04;17.48;;;12.52;;
63012;SDS011;62113;45.624;11.700;2024-03-29T00:11:30;16.27;;;12.63;;
63012;SDS011;62113;45.624;11.700;2024-03-29T00:13:56;16.83;;;13.60;;
63012;SDS011;62113;45.624;11.700;2024-03-29T00:16:22;17.23;;;13.90;;
63012;SDS011;62113;45.624;11.700;2024-03-29T00:18:50;19.70;;;14.30;;
63012;SDS011;62113;45.624;11.700;2024-03-29T00:21:16;18.83;;;13.90;;
63012;SDS011;62113;45.624;11.700;2024-03-29T00:23:42;19.70;;;13.68;;
63012;SDS011;62113;45.624;11.700;2024-03-29T00:26:10;17.85;;;13.38;;
63012;SDS011;62113;45.624;11.700;2024-03-29T00:28:36;18.58;;;14.63;;
63012;SDS011;62113;45.624;11.700;2024-03-29T00:31:02;22.67;;;14.80;;
63012;SDS011;62113;45.624;11.700;2024-03-29T00:33:28;23.77;;;16.45;;
63012;SDS011;62113;45.624;11.700;2024-03-29T00:35:53;27.17;;;16.13;;
63012;SDS011;62113;45.624;11.700;2024-03-29T00:38:19;22.60;;;17.10;;
63012;SDS011;62113;45.624;11.700;2024-03-29T00:40:44;27.33;;;16.40;;
63012;SDS011;62113;45.624;11.700;2024-03-29T00:43:10;19.58;;;15.02;;
63012;SDS011;62113;45.624;11.700;2024-03-29T00:45:35;22.42;;;15.90;;
63012;SDS011;62113;45.624;11.700;2024-03-29T00:48:01;20.17;;;14.75;;
63012;SDS011;62113;45.624;11.700;2024-03-29T00:50:27;23.02;;;16.83;;
63012;SDS011;62113;45.624;11.700;2024-03-29T00:52:52;19.63;;;15.48;;
63012;SDS011;62113;45.624;11.700;2024-03-29T00:55:18;23.77;;;15.27;;
63012;SDS011;62113;45.624;11.700;2024-03-29T00:57:43;21.35;;;16.30;;
63012;SDS011;62113;45.624;11.700;2024-03-29T01:00:09;21.30;;;15.90;;
63012;SDS011;62113;45.624;11.700;2024-03-29T01:02:35;19.52;;;15.77;;
63012;SDS011;62113;45.624;11.700;2024-03-29T01:05:01;22.48;;;14.77;;
63012;SDS011;62113;45.624;11.700;2024-03-29T01:07:27;24.27;;;16.27;;
63012;SDS011;62113;45.624;11.700;2024-03-29T01:09:53;26.05;;;15.00;;
63012;SDS011;62113;45.624;11.700;2024-03-29T01:12:19;22.27;;;16.42;;
63012;SDS011;62113;45.624;11.700;2024-03-29T01:14:44;26.23;;;18.17;;
63012;SDS011;62113;45.624;11.700;2024-03-29T01:17:11;23.27;;;17.17;;
63012;SDS011;62113;45.624;11.700;2024-03-29T01:19:36;20.73;;;16.30;;
63012;SDS011;62113;45.624;11.700;2024-03-29T01:22:02;22.00;;;16.57;;
63012;SDS011;62113;45.624;11.700;2024-03-29T01:24:29;17.77;;;14.73;;
63012;SDS011;62113;45.624;11.700;2024-03-29T01:26:54;24.25;;;17.33;;
63012;SDS011;62113;45.624;11.700;2024-03-29T01:29:20;20.13;;;14.93;;
63012;SDS011;62113;45.624;11.700;2024-03-29T01:31:46;20.30;;;16.38;;
63012;SDS011;62113;45.624;11.700;2024-03-29T01:34:11;24.83;;;17.02;;
63012;SDS011;62113;45.624;11.700;2024-03-29T01:36:37;18.20;;;15.38;;
63012;SDS011;62113;45.624;11.700;2024-03-29T01:39:03;19.35;;;15.25;;
63012;SDS011;62113;45.624;11.700;2024-03-29T01:41:29;18.33;;;14.53;;
63012;SDS011;62113;45.624;11.700;2024-03-29T01:43:55;19.90;;;16.35;;
63012;SDS011;62113;45.624;11.700;2024-03-29T01:46:21;21.45;;;16.48;;
63012;SDS011;62113;45.624;11.700;2024-03-29T01:48:51;22.17;;;15.23;;
63012;SDS011;62113;45.624;11.700;2024-03-29T01:51:18;17.65;;;14.85;;
63012;SDS011;62113;45.624;11.700;2024-03-29T01:53:46;23.17;;;16.73;;
63012;SDS011;62113;45.624;11.700;2024-03-29T01:56:14;17.88;;;15.38;;
63012;SDS011;62113;45.624;11.700;2024-03-29T01:58:41;19.48;;;16.05;;
63012;SDS011;62113;45.624;11.700;2024-03-29T02:01:07;22.75;;;17.77;;
63012;SDS011;62113;45.624;11.700;2024-03-29T02:03:33;17.90;;;14.93;;
63012;SDS011;62113;45.624;11.700;2024-03-29T02:05:59;21.63;;;15.93;;
63012;SDS011;62113;45.624;11.700;2024-03-29T02:08:26;19.42;;;15.98;;
63012;SDS011;62113;45.624;11.700;2024-03-29T02:10:53;23.05;;;16.27;;
63012;SDS011;62113;45.624;11.700;2024-03-29T02:13:19;22.70;;;17.20;;
63012;SDS011;62113;45.624;11.700;2024-03-29T02:15:45;19.70;;;16.40;;
63012;SDS011;62113;45.624;11.700;2024-03-29T02:18:10;26.23;;;18.75;;
63012;SDS011;62113;45.624;11.700;2024-03-29T02:20:36;23.13;;;17.13;;
63012;SDS011;62113;45.624;11.700;2024-03-29T02:28:04;19.73;;;15.80;;
63012;SDS011;62113;45.624;11.700;2024-03-29T02:30:30;24.27;;;17.13;;
63012;SDS011;62113;45.624;11.700;2024-03-29T02:32:59;21.92;;;16.88;;
63012;SDS011;62113;45.624;11.700;2024-03-29T02:35:25;27.15;;;18.92;;
63012;SDS011;62113;45.624;11.700;2024-03-29T02:37:52;20.23;;;16.85;;
63012;SDS011;62113;45.624;11.700;2024-03-29T02:40:18;25.40;;;19.10;;
63012;SDS011;62113;45.624;11.700;2024-03-29T02:42:44;21.05;;;16.83;;
63012;SDS011;62113;45.624;11.700;2024-03-29T02:45:10;21.80;;;17.08;;
63012;SDS011;62113;45.624;11.700;2024-03-29T02:47:36;21.67;;;17.20;;
63012;SDS011;62113;45.624;11.700;2024-03-29T02:50:01;23.75;;;16.55;;
63012;SDS011;62113;45.624;11.700;2024-03-29T02:52:28;29.20;;;18.52;;
63012;SDS011;62113;45.624;11.700;2024-03-29T02:54:54;23.55;;;17.65;;
63012;SDS011;62113;45.624;11.700;2024-03-29T02:57:20;23.52;;;16.90;;
63012;SDS011;62113;45.624;11.700;2024-03-29T02:59:45;21.27;;;15.85;;
63012;SDS011;62113;45.624;11.700;2024-03-29T03:02:11;22.45;;;17.05;;
63012;SDS011;62113;45.624;11.700;2024-03-29T03:04:37;26.10;;;18.07;;
63012;SDS011;62113;45.624;11.700;2024-03-29T03:07:02;25.73;;;18.60;;
63012;SDS011;62113;45.624;11.700;2024-03-29T03:09:51;22.67;;;17.42;;
63012;SDS011;62113;45.624;11.700;2024-03-29T03:12:35;23.52;;;16.77;;
63012;SDS011;62113;45.624;11.700;2024-03-29T03:15:00;25.92;;;17.30;;
63012;SDS011;62113;45.624;11.700;2024-03-29T03:17:26;25.37;;;18.10;;
63012;SDS011;62113;45.624;11.700;2024-03-29T03:19:53;27.95;;;17.83;;
63012;SDS011;62113;45.624;11.700;2024-03-29T03:22:18;20.90;;;15.70;;
63012;SDS011;62113;45.624;11.700;2024-03-29T03:24:44;25.48;;;18.90;;
63012;SDS011;62113;45.624;11.700;2024-03-29T03:27:10;26.87;;;18.13;;
63012;SDS011;62113;45.624;11.700;2024-03-29T03:29:36;32.28;;;20.13;;
63012;SDS011;62113;45.624;11.700;2024-03-29T03:32:01;25.98;;;19.38;;
63012;SDS011;62113;45.624;11.700;2024-03-29T03:34:27;28.65;;;19.08;;
63012;SDS011;62113;45.624;11.700;2024-03-29T03:36:53;26.13;;;19.33;;
63012;SDS011;62113;45.624;11.700;2024-03-29T03:39:18;25.45;;;19.10;;
63012;SDS011;62113;45.624;11.700;2024-03-29T03:41:44;28.33;;;20.13;;
63012;SDS011;62113;45.624;11.700;2024-03-29T03:44:09;29.40;;;21.10;;
63012;SDS011;62113;45.624;11.700;2024-03-29T03:46:35;27.60;;;20.33;;
63012;SDS011;62113;45.624;11.700;2024-03-29T03:49:00;26.83;;;20.07;;
63012;SDS011;62113;45.624;11.700;2024-03-29T03:51:26;23.90;;;19.40;;
63012;SDS011;62113;45.624;11.700;2024-03-29T03:53:52;27.07;;;20.33;;
63012;SDS011;62113;45.624;11.700;2024-03-29T03:56:17;28.63;;;20.40;;
63012;SDS011;62113;45.624;11.700;2024-03-29T03:58:44;29.98;;;20.30;;
63012;SDS011;62113;45.624;11.700;2024-03-29T04:01:09;32.95;;;20.50;;
63012;SDS011;62113;45.624;11.700;2024-03-29T04:03:35;32.72;;;21.83;;
63012;SDS011;62113;45.624;11.700;2024-03-29T04:06:04;27.50;;;20.38;;
63012;SDS011;62113;45.624;11.700;2024-03-29T04:08:29;27.90;;;21.13;;
63012;SDS011;62113;45.624;11.700;2024-03-29T04:10:55;29.60;;;21.55;;
63012;SDS011;62113;45.624;11.700;2024-03-29T04:13:21;33.47;;;20.33;;
63012;SDS011;62113;45.624;11.700;2024-03-29T04:15:47;30.42;;;20.60;;
63012;SDS011;62113;45.624;11.700;2024-03-29T04:18:13;32.60;;;20.98;;
63012;SDS011;62113;45.624;11.700;2024-03-29T04:20:39;29.23;;;20.43;;
63012;SDS011;62113;45.624;11.700;2024-03-29T04:23:05;27.17;;;19.77;;
63012;SDS011;62113;45.624;11.700;2024-03-29T04:25:31;25.85;;;19.70;;
63012;SDS011;62113;45.624;11.700;2024-03-29T04:27:56;25.25;;;18.58;;
63012;SDS011;62113;45.624;11.700;2024-03-29T04:30:22;24.98;;;19.08;;
63012;SDS011;62113;45.624;11.700;2024-03-29T04:32:47;24.20;;;17.38;;
63012;SDS011;62113;45.624;11.700;2024-03-29T04:35:13;24.80;;;18.52;;
63012;SDS011;62113;45.624;11.700;2024-03-29T04:37:39;27.73;;;18.23;;
63012;SDS011;62113;45.624;11.700;2024-03-29T04:40:04;25.15;;;17.63;;
63012;SDS011;62113;45.624;11.700;2024-03-29T04:42:31;23.63;;;18.23;;
63012;SDS011;62113;45.624;11.700;2024-03-29T04:44:56;25.38;;;16.67;;
63012;SDS011;62113;45.624;11.700;2024-03-29T04:47:22;24.38;;;16.92;;
63012;SDS011;62113;45.624;11.700;2024-03-29T04:49:48;25.80;;;15.88;;
63012;SDS011;62113;45.624;11.700;2024-03-29T04:52:13;22.55;;;15.73;;
63012;SDS011;62113;45.624;11.700;2024-03-29T04:54:39;21.88;;;15.88;;
63012;SDS011;62113;45.624;11.700;2024-03-29T04:57:05;20.98;;;14.77;;
63012;SDS011;62113;45.624;11.700;2024-03-29T04:59:33;18.48;;;13.98;;
63012;SDS011;62113;45.624;11.700;2024-03-29T05:01:59;17.27;;;13.18;;
63012;SDS011;62113;45.624;11.700;2024-03-29T05:04:25;22.70;;;13.25;;
63012;SDS011;62113;45.624;11.700;2024-03-29T05:06:57;16.77;;;12.95;;
63012;SDS011;62113;45.624;11.700;2024-03-29T05:09:24;16.77;;;12.38;;
63012;SDS011;62113;45.624;11.700;2024-03-29T05:11:50;19.02;;;12.80;;
63012;SDS011;62113;45.624;11.700;2024-03-29T05:14:16;20.83;;;13.75;;
63012;SDS011;62113;45.624;11.700;2024-03-29T05:19:12;16.23;;;12.48;;
63012;SDS011;62113;45.624;11.700;2024-03-29T05:21:39;18.92;;;12.70;;
63012;SDS011;62113;45.624;11.700;2024-03-29T05:24:05;14.88;;;11.27;;
63012;SDS011;62113;45.624;11.700;2024-03-29T05:26:30;14.43;;;11.47;;
63012;SDS011;62113;45.624;11.700;2024-03-29T05:28:56;14.47;;;11.20;;
63012;SDS011;62113;45.624;11.700;2024-03-29T05:31:25;15.23;;;11.10;;
63012;SDS011;62113;45.624;11.700;2024-03-29T05:33:51;14.73;;;10.65;;
63012;SDS011;62113;45.624;11.700;2024-03-29T05:36:17;25.88;;;11.45;;
63012;SDS011;62113;45.624;11.700;2024-03-29T05:38:43;15.45;;;11.02;;
63012;SDS011;62113;45.624;11.700;2024-03-29T05:41:09;18.70;;;11.65;;
63012;SDS011;62113;45.624;11.700;2024-03-29T05:43:35;21.05;;;12.30;;
63012;SDS011;62113;45.624;11.700;2024-03-29T05:46:00;19.27;;;13.15;;
63012;SDS011;62113;45.624;11.700;2024-03-29T05:48:27;17.30;;;12.45;;
63012;SDS011;62113;45.624;11.700;2024-03-29T05:53:19;26.20;;;16.40;;
63012;SDS011;62113;45.624;11.700;2024-03-29T05:55:44;23.50;;;15.53;;
63012;SDS011;62113;45.624;11.700;2024-03-29T05:58:10;22.20;;;15.23;;
63012;SDS011;62113;45.624;11.700;2024-03-29T06:00:36;24.30;;;15.45;;
63012;SDS011;62113;45.624;11.700;2024-03-29T06:03:02;21.90;;;15.05;;
63012;SDS011;62113;45.624;11.700;2024-03-29T06:05:28;18.10;;;13.43;;
63012;SDS011;62113;45.624;11.700;2024-03-29T06:07:54;19.10;;;12.17;;
63012;SDS011;62113;45.624;11.700;2024-03-29T06:10:19;19.10;;;13.27;;
63012;SDS011;62113;45.624;11.700;2024-03-29T06:12:45;21.40;;;12.23;;
63012;SDS011;62113;45.624;11.700;2024-03-29T06:15:11;21.23;;;12.80;;
63012;SDS011;62113;45.624;11.700;2024-03-29T06:17:55;19.50;;;12.68;;
63012;SDS011;62113;45.624;11.700;2024-03-29T06:20:20;18.88;;;13.02;;
63012;SDS011;62113;45.624;11.700;2024-03-29T06:22:46;22.17;;;13.68;;
63012;SDS011;62113;45.624;11.700;2024-03-29T06:25:12;21.93;;;13.37;;
63012;SDS011;62113;45.624;11.700;2024-03-29T06:27:37;21.90;;;13.80;;
63012;SDS011;62113;45.624;11.700;2024-03-29T06:30:03;20.67;;;13.35;;
63012;SDS011;62113;45.624;11.700;2024-03-29T06:32:30;18.45;;;12.77;;
63012;SDS011;62113;45.624;11.700;2024-03-29T06:34:57;15.55;;;11.63;;
63012;SDS011;62113;45.624;11.700;2024-03-29T06:37:23;16.63;;;11.85;;
63012;SDS011;62113;45.624;11.700;2024-03-29T06:39:50;18.80;;;11.90;;
63012;SDS011;62113;45.624;11.700;2024-03-29T06:42:16;15.93;;;10.98;;
63012;SDS011;62113;45.624;11.700;2024-03-29T06:44:42;15.25;;;11.77;;
63012;SDS011;62113;45.624;11.700;2024-03-29T06:47:08;13.70;;;10.67;;
63012;SDS011;62113;45.624;11.700;2024-03-29T06:49:34;13.87;;;10.23;;
63012;SDS011;62113;45.624;11.700;2024-03-29T06:52:00;16.45;;;9.70;;
63012;SDS011;62113;45.624;11.700;2024-03-29T06:54:29;14.00;;;9.97;;
63012;SDS011;62113;45.624;11.700;2024-03-29T06:56:55;15.68;;;10.52;;
63012;SDS011;62113;45.624;11.700;2024-03-29T06:59:21;17.00;;;10.37;;
63012;SDS011;62113;45.624;11.700;2024-03-29T07:01:47;11.48;;;9.38;;
63012;SDS011;62113;45.624;11.700;2024-03-29T07:04:16;13.73;;;9.23;;
63012;SDS011;62113;45.624;11.700;2024-03-29T07:06:49;12.90;;;8.95;;
63012;SDS011;62113;45.624;11.700;2024-03-29T07:09:19;13.80;;;9.45;;
63012;SDS011;62113;45.624;11.700;2024-03-29T07:11:46;12.88;;;9.55;;
63012;SDS011;62113;45.624;11.700;2024-03-29T07:16:41;14.00;;;9.00;;
63012;SDS011;62113;45.624;11.700;2024-03-29T07:19:07;14.50;;;9.98;;
63012;SDS011;62113;45.624;11.700;2024-03-29T07:21:33;20.13;;;11.30;;
63012;SDS011;62113;45.624;11.700;2024-03-29T07:23:59;18.00;;;10.88;;
63012;SDS011;62113;45.624;11.700;2024-03-29T07:26:24;13.63;;;9.47;;
63012;SDS011;62113;45.624;11.700;2024-03-29T07:28:50;13.40;;;8.70;;
63012;SDS011;62113;45.624;11.700;2024-03-29T07:31:15;13.30;;;8.97;;
63012;SDS011;62113;45.624;11.700;2024-03-29T07:33:41;14.48;;;8.02;;
63012;SDS011;62113;45.624;11.700;2024-03-29T07:36:07;12.38;;;8.15;;
63012;SDS011;62113;45.624;11.700;2024-03-29T07:38:34;17.73;;;9.02;;
63012;SDS011;62113;45.624;11.700;2024-03-29T07:43:34;10.30;;;7.30;;
63012;SDS011;62113;45.624;11.700;2024-03-29T07:46:04;11.98;;;6.82;;
63012;SDS011;62113;45.624;11.700;2024-03-29T07:48:30;12.43;;;7.30;;
63012;SDS011;62113;45.624;11.700;2024-03-29T07:50:56;13.63;;;7.75;;
63012;SDS011;62113;45.624;11.700;2024-03-29T07:53:21;11.20;;;6.97;;
63012;SDS011;62113;45.624;11.700;2024-03-29T07:55:49;9.20;;;7.03;;
63012;SDS011;62113;45.624;11.700;2024-03-29T07:58:15;11.77;;;7.30;;
63012;SDS011;62113;45.624;11.700;2024-03-29T08:00:41;10.95;;;7.05;;
63012;SDS011;62113;45.624;11.700;2024-03-29T08:03:08;11.98;;;7.28;;
63012;SDS011;62113;45.624;11.700;2024-03-29T08:05:33;6.47;;;5.82;;
63012;SDS011;62113;45.624;11.700;2024-03-29T08:07:59;10.50;;;6.63;;
63012;SDS011;62113;45.624;11.700;2024-03-29T08:10:25;7.53;;;5.55;;
63012;SDS011;62113;45.624;11.700;2024-03-29T08:12:51;16.73;;;5.03;;
63012;SDS011;62113;45.624;11.700;2024-03-29T08:15:16;8.55;;;5.18;;
63012;SDS011;62113;45.624;11.700;2024-03-29T08:17:45;11.38;;;4.95;;
63012;SDS011;62113;45.624;11.700;2024-03-29T08:20:11;6.82;;;5.03;;
63012;SDS011;62113;45.624;11.700;2024-03-29T08:22:36;9.40;;;4.65;;
63012;SDS011;62113;45.624;11.700;2024-03-29T08:25:02;6.60;;;4.37;;
63012;SDS011;62113;45.624;11.700;2024-03-29T08:27:28;7.90;;;4.60;;
63012;SDS011;62113;45.624;11.700;2024-03-29T08:29:53;6.40;;;4.55;;
63012;SDS011;62113;45.624;11.700;2024-03-29T08:32:19;8.97;;;5.43;;
63012;SDS011;62113;45.624;11.700;2024-03-29T08:34:45;17.50;;;5.10;;
63012;SDS011;62113;45.624;11.700;2024-03-29T08:37:10;10.73;;;5.35;;
63012;SDS011;62113;45.624;11.700;2024-03-29T08:39:36;7.50;;;5.43;;
63012;SDS011;62113;45.624;11.700;2024-03-29T08:42:03;10.85;;;5.80;;
63012;SDS011;62113;45.624;11.700;2024-03-29T08:44:33;9.75;;;6.22;;
63012;SDS011;62113;45.624;11.700;2024-03-29T08:46:59;10.63;;;6.07;;
63012;SDS011;62113;45.624;11.700;2024-03-29T08:49:28;8.43;;;5.20;;
63012;SDS011;62113;45.624;11.700;2024-03-29T08:51:54;11.83;;;6.43;;
63012;SDS011;62113;45.624;11.700;2024-03-29T08:54:21;15.25;;;7.07;;
63012;SDS011;62113;45.624;11.700;2024-03-29T08:56:47;12.27;;;5.97;;
63012;SDS011;62113;45.624;11.700;2024-03-29T08:59:12;12.90;;;6.97;;
63012;SDS011;62113;45.624;11.700;2024-03-29T09:01:41;9.55;;;6.53;;
63012;SDS011;62113;45.624;11.700;2024-03-29T09:04:09;10.23;;;6.17;;
63012;SDS011;62113;45.624;11.700;2024-03-29T09:06:39;10.40;;;6.60;;
63012;SDS011;62113;45.624;11.700;2024-03-29T09:09:05;14.20;;;6.97;;
63012;SDS011;62113;45.624;11.700;2024-03-29T09:11:31;12.07;;;6.90;;
63012;SDS011;62113;45.624;11.700;2024-03-29T09:13:57;10.38;;;6.45;;
63012;SDS011;62113;45.624;11.700;2024-03-29T09:16:27;11.20;;;6.10;;
63012;SDS011;62113;45.624;11.700;2024-03-29T09:18:55;8.32;;;6.57;;
63012;SDS011;62113;45.624;11.700;2024-03-29T09:21:20;13.10;;;5.95;;
63012;SDS011;62113;45.624;11.700;2024-03-29T09:23:46;11.88;;;6.43;;
63012;SDS011;62113;45.624;11.700;2024-03-29T09:26:13;6.97;;;5.53;;
63012;SDS011;62113;45.624;11.700;2024-03-29T09:28:43;12.38;;;6.20;;
63012;SDS011;62113;45.624;11.700;2024-03-29T09:31:08;11.27;;;5.97;;
63012;SDS011;62113;45.624;11.700;2024-03-29T09:33:34;7.38;;;5.07;;
63012;SDS011;62113;45.624;11.700;2024-03-29T09:36:00;6.15;;;4.55;;
63012;SDS011;62113;45.624;11.700;2024-03-29T09:38:26;7.13;;;4.83;;
63012;SDS011;62113;45.624;11.700;2024-03-29T09:43:29;6.57;;;4.43;;
63012;SDS011;62113;45.624;11.700;2024-03-29T09:45:55;9.13;;;5.35;;
63012;SDS011;62113;45.624;11.700;2024-03-29T09:48:21;6.27;;;4.23;;
63012;SDS011;62113;45.624;11.700;2024-03-29T09:50:48;7.78;;;4.70;;
63012;SDS011;62113;45.624;11.700;2024-03-29T09:53:15;5.28;;;4.00;;
63012;SDS011;62113;45.624;11.700;2024-03-29T09:55:43;8.73;;;5.13;;
63012;SDS011;62113;45.624;11.700;2024-03-29T09:58:09;6.47;;;4.80;;
63012;SDS011;62113;45.624;11.700;2024-03-29T10:00:34;6.53;;;4.70;;
63012;SDS011;62113;45.624;11.700;2024-03-29T10:03:00;8.10;;;4.07;;
63012;SDS011;62113;45.624;11.700;2024-03-29T10:05:27;6.68;;;4.47;;
63012;SDS011;62113;45.624;11.700;2024-03-29T10:07:54;11.00;;;4.32;;
63012;SDS011;62113;45.624;11.700;2024-03-29T10:10:19;6.67;;;4.20;;
63012;SDS011;62113;45.624;11.700;2024-03-29T10:12:45;7.27;;;4.10;;
63012;SDS011;62113;45.624;11.700;2024-03-29T10:15:11;8.83;;;4.80;;
63012;SDS011;62113;45.624;11.700;2024-03-29T10:17:49;7.85;;;4.63;;
63012;SDS011;62113;45.624;11.700;2024-03-29T10:20:15;6.95;;;3.90;;
63012;SDS011;62113;45.624;11.700;2024-03-29T10:22:44;9.88;;;4.70;;
63012;SDS011;62113;45.624;11.700;2024-03-29T10:27:40;4.93;;;3.70;;
63012;SDS011;62113;45.624;11.700;2024-03-29T10:30:06;6.00;;;4.07;;
63012;SDS011;62113;45.624;11.700;2024-03-29T10:32:34;6.30;;;3.30;;
63012;SDS011;62113;45.624;11.700;2024-03-29T10:35:02;5.45;;;3.78;;
63012;SDS011;62113;45.624;11.700;2024-03-29T10:37:28;4.93;;;3.40;;
63012;SDS011;62113;45.624;11.700;2024-03-29T10:39:54;6.00;;;3.17;;
63012;SDS011;62113;45.624;11.700;2024-03-29T10:42:22;6.35;;;3.10;;
63012;SDS011;62113;45.624;11.700;2024-03-29T10:44:50;5.22;;;3.30;;
63012;SDS011;62113;45.624;11.700;2024-03-29T10:47:18;6.10;;;3.30;;
63012;SDS011;62113;45.624;11.700;2024-03-29T10:49:49;5.13;;;3.40;;
63012;SDS011;62113;45.624;11.700;2024-03-29T10:52:16;7.63;;;3.45;;
63012;SDS011;62113;45.624;11.700;2024-03-29T10:54:44;6.55;;;3.30;;
63012;SDS011;62113;45.624;11.700;2024-03-29T10:57:12;6.20;;;2.83;;
63012;SDS011;62113;45.624;11.700;2024-03-29T11:05:41;5.78;;;2.90;;
63012;SDS011;62113;45.624;11.700;2024-03-29T11:08:14;4.72;;;2.55;;
63012;SDS011;62113;45.624;11.700;2024-03-29T11:10:47;2.40;;;2.20;;
63012;SDS011;62113;45.624;11.700;2024-03-29T11:15:49;3.15;;;1.90;;
63012;SDS011;62113;45.624;11.700;2024-03-29T11:18:15;3.28;;;1.90;;
63012;SDS011;62113;45.624;11.700;2024-03-29T11:20:44;6.60;;;2.42;;
63012;SDS011;62113;45.624;11.700;2024-03-29T11:23:16;3.78;;;2.15;;
63012;SDS011;62113;45.624;11.700;2024-03-29T11:25:45;5.78;;;1.95;;
63012;SDS011;62113;45.624;11.700;2024-03-29T11:28:32;4.70;;;2.17;;
63012;SDS011;62113;45.624;11.700;2024-03-29T11:33:31;5.32;;;2.15;;
63012;SDS011;62113;45.624;11.700;2024-03-29T11:36:22;7.35;;;2.25;;
63012;SDS011;62113;45.624;11.700;2024-03-29T11:38:50;4.95;;;2.33;;
63012;SDS011;62113;45.624;11.700;2024-03-29T11:41:21;6.00;;;2.92;;
63012;SDS011;62113;45.624;11.700;2024-03-29T11:43:48;8.32;;;2.40;;
63012;SDS011;62113;45.624;11.700;2024-03-29T11:46:15;5.13;;;2.97;;
63012;SDS011;62113;45.624;11.700;2024-03-29T11:48:42;4.82;;;2.90;;
63012;SDS011;62113;45.624;11.700;2024-03-29T11:51:10;6.18;;;3.20;;
63012;SDS011;62113;45.624;11.700;2024-03-29T11:53:40;9.25;;;3.78;;
63012;SDS011;62113;45.624;11.700;2024-03-29T11:56:06;6.38;;;3.40;;
63012;SDS011;62113;45.624;11.700;2024-03-29T11:58:32;4.68;;;3.00;;
63012;SDS011;62113;45.624;11.700;2024-03-29T12:00:59;5.03;;;2.53;;
63012;SDS011;62113;45.624;11.700;2024-03-29T12:03:27;5.53;;;3.60;;
63012;SDS011;62113;45.624;11.700;2024-03-29T12:05:54;4.45;;;2.60;;
63012;SDS011;62113;45.624;11.700;2024-03-29T12:08:28;6.93;;;2.25;;
63012;SDS011;62113;45.624;11.700;2024-03-29T12:10:56;5.10;;;2.70;;
63012;SDS011;62113;45.624;11.700;2024-03-29T12:13:23;6.53;;;2.90;;
63012;SDS011;62113;45.624;11.700;2024-03-29T12:15:48;18.80;;;8.23;;
63012;SDS011;62113;45.624;11.700;2024-03-29T12:18:14;15.00;;;6.23;;
63012;SDS011;62113;45.624;11.700;2024-03-29T12:20:41;10.63;;;5.03;;
63012;SDS011;62113;45.624;11.700;2024-03-29T12:23:11;10.95;;;4.25;;
63012;SDS011;62113;45.624;11.700;2024-03-29T12:25:38;6.43;;;3.67;;
63012;SDS011;62113;45.624;11.700;2024-03-29T12:28:04;4.78;;;2.90;;
63012;SDS011;62113;45.624;11.700;2024-03-29T12:30:31;6.22;;;3.40;;
63012;SDS011;62113;45.624;11.700;2024-03-29T12:33:01;7.07;;;2.70;;
63012;SDS011;62113;45.624;11.700;2024-03-29T12:35:27;6.70;;;2.90;;
63012;SDS011;62113;45.624;11.700;2024-03-29T12:37:54;10.73;;;3.22;;
63012;SDS011;62113;45.624;11.700;2024-03-29T12:40:21;6.47;;;2.67;;
63012;SDS011;62113;45.624;11.700;2024-03-29T12:42:48;7.10;;;3.08;;
63012;SDS011;62113;45.624;11.700;2024-03-29T12:45:15;5.57;;;2.70;;
63012;SDS011;62113;45.624;11.700;2024-03-29T12:47:45;6.40;;;2.80;;
63012;SDS011;62113;45.624;11.700;2024-03-29T12:50:13;11.80;;;3.05;;
63012;SDS011;62113;45.624;11.700;2024-03-29T12:52:47;9.17;;;3.20;;
63012;SDS011;62113;45.624;11.700;2024-03-29T12:55:13;5.80;;;2.97;;
63012;SDS011;62113;45.624;11.700;2024-03-29T12:57:42;5.22;;;2.78;;
63012;SDS011;62113;45.624;11.700;2024-03-29T13:00:09;9.45;;;3.72;;
63012;SDS011;62113;45.624;11.700;2024-03-29T13:02:36;8.38;;;3.15;;
63012;SDS011;62113;45.624;11.700;2024-03-29T13:05:05;5.67;;;2.70;;
63012;SDS011;62113;45.624;11.700;2024-03-29T13:07:31;10.90;;;3.50;;
63012;SDS011;62113;45.624;11.700;2024-03-29T13:09:57;7.75;;;3.20;;
63012;SDS011;62113;45.624;11.700;2024-03-29T13:12:24;13.43;;;4.20;;
63012;SDS011;62113;45.624;11.700;2024-03-29T13:14:50;12.10;;;3.43;;
63012;SDS011;62113;45.624;11.700;2024-03-29T13:17:17;15.65;;;3.75;;
63012;SDS011;62113;45.624;11.700;2024-03-29T13:19:43;9.57;;;3.60;;
63012;SDS011;62113;45.624;11.700;2024-03-29T13:22:08;11.03;;;3.43;;
63012;SDS011;62113;45.624;11.700;2024-03-29T13:24:34;14.90;;;4.07;;
63012;SDS011;62113;45.624;11.700;2024-03-29T13:26:59;9.00;;;2.77;;
63012;SDS011;62113;45.624;11.700;2024-03-29T13:29:26;8.73;;;3.45;;
63012;SDS011;62113;45.624;11.700;2024-03-29T13:31:51;14.27;;;3.40;;
63012;SDS011;62113;45.624;11.700;2024-03-29T13:34:17;9.13;;;2.77;;
63012;SDS011;62113;45.624;11.700;2024-03-29T13:36:43;12.13;;;3.30;;
63012;SDS011;62113;45.624;11.700;2024-03-29T13:39:10;12.48;;;3.42;;
63012;SDS011;62113;45.624;11.700;2024-03-29T13:41:38;11.80;;;2.95;;
63012;SDS011;62113;45.624;11.700;2024-03-29T13:44:05;11.15;;;2.70;;
63012;SDS011;62113;45.624;11.700;2024-03-29T13:46:34;16.60;;;4.03;;
63012;SDS011;62113;45.624;11.700;2024-03-29T13:49:00;10.52;;;3.35;;
63012;SDS011;62113;45.624;11.700;2024-03-29T13:51:28;15.38;;;3.00;;
63012;SDS011;62113;45.624;11.700;2024-03-29T13:53:54;14.37;;;3.70;;
63012;SDS011;62113;45.624;11.700;2024-03-29T13:56:19;11.20;;;3.40;;
63012;SDS011;62113;45.624;11.700;2024-03-29T13:58:46;14.18;;;3.10;;
63012;SDS011;62113;45.624;11.700;2024-03-29T14:01:12;10.93;;;3.25;;
63012;SDS011;62113;45.624;11.700;2024-03-29T14:03:37;13.30;;;2.80;;
63012;SDS011;62113;45.624;11.700;2024-03-29T14:06:03;11.10;;;3.10;;
63012;SDS011;62113;45.624;11.700;2024-03-29T14:10:56;7.47;;;2.53;;
63012;SDS011;62113;45.624;11.700;2024-03-29T14:13:22;11.48;;;3.33;;
63012;SDS011;62113;45.624;11.700;2024-03-29T14:15:48;7.23;;;2.90;;
63012;SDS011;62113;45.624;11.700;2024-03-29T14:18:14;10.57;;;2.73;;
63012;SDS011;62113;45.624;11.700;2024-03-29T14:20:40;15.73;;;3.57;;
63012;SDS011;62113;45.624;11.700;2024-03-29T14:23:06;13.47;;;2.53;;
63012;SDS011;62113;45.624;11.700;2024-03-29T14:25:35;18.08;;;3.20;;
63012;SDS011;62113;45.624;11.700;2024-03-29T14:28:02;12.18;;;3.13;;
63012;SDS011;62113;45.624;11.700;2024-03-29T14:30:28;14.07;;;3.10;;
63012;SDS011;62113;45.624;11.700;2024-03-29T14:32:57;20.42;;;3.10;;
63012;SDS011;62113;45.624;11.700;2024-03-29T14:35:26;11.60;;;2.83;;
63012;SDS011;62113;45.624;11.700;2024-03-29T14:37:54;19.10;;;3.97;;
63012;SDS011;62113;45.624;11.700;2024-03-29T14:40:20;14.95;;;3.65;;
63012;SDS011;62113;45.624;11.700;2024-03-29T14:42:46;17.20;;;3.77;;
63012;SDS011;62113;45.624;11.700;2024-03-29T14:45:12;12.23;;;2.90;;
63012;SDS011;62113;45.624;11.700;2024-03-29T14:47:37;14.10;;;3.50;;
63012;SDS011;62113;45.624;11.700;2024-03-29T14:50:03;15.70;;;3.43;;